sensor_id;sensor_type;location;lat;lon;timestamp;P1;durP1;ratioP1;P2;durP2;ratioP2
31018;SDS011;17689;45.610;5.858;2022-08-18T00:02:24;3.80;;;3.40;;
31018;SDS011;17689;45.610;5.858;2022-08-18T00:04:52;3.83;;;2.90;;
31018;SDS011;17689;45.610;5.858;2022-08-18T00:07:23;3.30;;;3.00;;
31018;SDS011;17689;45.610;5.858;2022-08-18T00:09:49;2.80;;;2.60;;
31018;SDS011;17689;45.610;5.858;2022-08-18T00:12:17;3.87;;;2.80;;
31018;SDS011;17689;45.610;5.858;2022-08-18T00:14:43;2.80;;;2.60;;
31018;SDS011;17689;45.610;5.858;2022-08-18T00:17:10;3.47;;;3.10;;
31018;SDS011;17689;45.610;5.858;2022-08-18T00:19:36;3.23;;;2.87;;
31018;SDS011;17689;45.610;5.858;2022-08-18T00:22:02;3.50;;;2.70;;
31018;SDS011;17689;45.610;5.858;2022-08-18T00:24:28;2.53;;;2.33;;
31018;SDS011;17689;45.610;5.858;2022-08-18T00:26:55;4.03;;;2.80;;
31018;SDS011;17689;45.610;5.858;2022-08-18T00:29:22;3.73;;;3.00;;
31018;SDS011;17689;45.610;5.858;2022-08-18T00:31:48;3.83;;;3.00;;
31018;SDS011;17689;45.610;5.858;2022-08-18T00:34:14;3.17;;;2.90;;
31018;SDS011;17689;45.610;5.858;2022-08-18T00:36:40;3.20;;;2.90;;
31018;SDS011;17689;45.610;5.858;2022-08-18T00:39:07;3.13;;;2.83;;
31018;SDS011;17689;45.610;5.858;2022-08-18T00:41:34;3.67;;;2.90;;
31018;SDS011;17689;45.610;5.858;2022-08-18T00:44:00;2.70;;;2.50;;
31018;SDS011;17689;45.610;5.858;2022-08-18T00:46:32;2.93;;;2.70;;
31018;SDS011;17689;45.610;5.858;2022-08-18T00:48:59;3.10;;;2.80;;
31018;SDS011;17689;45.610;5.858;2022-08-18T00:51:32;3.77;;;2.80;;
31018;SDS011;17689;45.610;5.858;2022-08-18T00:54:00;3.40;;;3.03;;
31018;SDS011;17689;45.610;5.858;2022-08-18T00:56:29;4.83;;;2.60;;
31018;SDS011;17689;45.610;5.858;2022-08-18T00:59:41;2.90;;;2.53;;
31018;SDS011;17689;45.610;5.858;2022-08-18T01:01:48;3.23;;;2.90;;
31018;SDS011;17689;45.610;5.858;2022-08-18T01:04:17;2.93;;;2.67;;
31018;SDS011;17689;45.610;5.858;2022-08-18T01:06:45;3.10;;;2.77;;
31018;SDS011;17689;45.610;5.858;2022-08-18T01:09:12;3.83;;;2.47;;
31018;SDS011;17689;45.610;5.858;2022-08-18T01:11:41;3.93;;;3.00;;
31018;SDS011;17689;45.610;5.858;2022-08-18T01:14:08;3.17;;;2.87;;
31018;SDS011;17689;45.610;5.858;2022-08-18T01:16:35;3.37;;;3.07;;
31018;SDS011;17689;45.610;5.858;2022-08-18T01:19:19;4.23;;;3.20;;
31018;SDS011;17689;45.610;5.858;2022-08-18T01:24:44;4.43;;;3.00;;
31018;SDS011;17689;45.610;5.858;2022-08-18T01:27:29;4.33;;;3.50;;
31018;SDS011;17689;45.610;5.858;2022-08-18T01:29:56;3.87;;;3.23;;
31018;SDS011;17689;45.610;5.858;2022-08-18T01:32:26;4.13;;;3.73;;
31018;SDS011;17689;45.610;5.858;2022-08-18T01:34:53;4.10;;;3.40;;
31018;SDS011;17689;45.610;5.858;2022-08-18T01:37:20;3.70;;;3.23;;
31018;SDS011;17689;45.610;5.858;2022-08-18T01:39:47;3.97;;;3.23;;
31018;SDS011;17689;45.610;5.858;2022-08-18T01:42:14;5.00;;;3.27;;
31018;SDS011;17689;45.610;5.858;2022-08-18T01:44:41;3.57;;;3.20;;
31018;SDS011;17689;45.610;5.858;2022-08-18T01:47:08;4.17;;;3.30;;
31018;SDS011;17689;45.610;5.858;2022-08-18T01:49:36;3.80;;;3.43;;
31018;SDS011;17689;45.610;5.858;2022-08-18T01:52:02;4.73;;;4.00;;
31018;SDS011;17689;45.610;5.858;2022-08-18T01:54:31;4.10;;;3.70;;
31018;SDS011;17689;45.610;5.858;2022-08-18T01:56:58;5.27;;;3.57;;
31018;SDS011;17689;45.610;5.858;2022-08-18T01:59:24;5.50;;;4.00;;
31018;SDS011;17689;45.610;5.858;2022-08-18T02:01:50;4.57;;;3.87;;
31018;SDS011;17689;45.610;5.858;2022-08-18T02:04:21;4.47;;;4.07;;
31018;SDS011;17689;45.610;5.858;2022-08-18T02:06:49;6.60;;;4.47;;
31018;SDS011;17689;45.610;5.858;2022-08-18T02:09:15;5.87;;;4.67;;
31018;SDS011;17689;45.610;5.858;2022-08-18T02:11:41;4.63;;;4.10;;
31018;SDS011;17689;45.610;5.858;2022-08-18T02:14:07;4.87;;;4.00;;
31018;SDS011;17689;45.610;5.858;2022-08-18T02:16:34;4.53;;;4.13;;
31018;SDS011;17689;45.610;5.858;2022-08-18T02:19:00;5.13;;;4.33;;
31018;SDS011;17689;45.610;5.858;2022-08-18T02:21:26;5.07;;;4.20;;
31018;SDS011;17689;45.610;5.858;2022-08-18T02:23:52;5.53;;;4.37;;
31018;SDS011;17689;45.610;5.858;2022-08-18T02:26:19;4.57;;;4.17;;
31018;SDS011;17689;45.610;5.858;2022-08-18T02:28:45;4.53;;;3.97;;
31018;SDS011;17689;45.610;5.858;2022-08-18T02:31:13;6.70;;;4.40;;
31018;SDS011;17689;45.610;5.858;2022-08-18T02:33:40;6.13;;;4.10;;
31018;SDS011;17689;45.610;5.858;2022-08-18T02:36:06;4.33;;;3.90;;
31018;SDS011;17689;45.610;5.858;2022-08-18T02:38:33;5.07;;;4.57;;
31018;SDS011;17689;45.610;5.858;2022-08-18T02:41:00;4.40;;;4.00;;
31018;SDS011;17689;45.610;5.858;2022-08-18T02:43:27;5.27;;;4.23;;
31018;SDS011;17689;45.610;5.858;2022-08-18T02:45:53;4.60;;;4.17;;
31018;SDS011;17689;45.610;5.858;2022-08-18T02:48:20;6.07;;;4.43;;
31018;SDS011;17689;45.610;5.858;2022-08-18T02:50:59;5.47;;;3.83;;
31018;SDS011;17689;45.610;5.858;2022-08-18T02:53:25;5.03;;;4.50;;
31018;SDS011;17689;45.610;5.858;2022-08-18T02:55:52;4.13;;;3.73;;
31018;SDS011;17689;45.610;5.858;2022-08-18T02:58:18;5.90;;;4.70;;
31018;SDS011;17689;45.610;5.858;2022-08-18T03:00:44;6.13;;;3.87;;
31018;SDS011;17689;45.610;5.858;2022-08-18T03:03:11;5.33;;;3.53;;
31018;SDS011;17689;45.610;5.858;2022-08-18T03:05:37;4.60;;;3.80;;
31018;SDS011;17689;45.610;5.858;2022-08-18T03:08:03;4.97;;;4.00;;
31018;SDS011;17689;45.610;5.858;2022-08-18T03:10:30;5.37;;;3.40;;
31018;SDS011;17689;45.610;5.858;2022-08-18T03:12:56;4.27;;;3.70;;
31018;SDS011;17689;45.610;5.858;2022-08-18T03:15:22;4.00;;;3.60;;
31018;SDS011;17689;45.610;5.858;2022-08-18T03:17:49;6.93;;;3.50;;
31018;SDS011;17689;45.610;5.858;2022-08-18T03:20:15;6.40;;;3.33;;
31018;SDS011;17689;45.610;5.858;2022-08-18T03:22:41;5.50;;;3.90;;
31018;SDS011;17689;45.610;5.858;2022-08-18T03:25:08;6.83;;;4.03;;
31018;SDS011;17689;45.610;5.858;2022-08-18T03:27:34;4.43;;;3.90;;
31018;SDS011;17689;45.610;5.858;2022-08-18T03:30:00;4.80;;;4.10;;
31018;SDS011;17689;45.610;5.858;2022-08-18T03:32:28;5.23;;;3.97;;
31018;SDS011;17689;45.610;5.858;2022-08-18T03:34:54;4.20;;;3.80;;
31018;SDS011;17689;45.610;5.858;2022-08-18T03:37:20;4.80;;;4.10;;
31018;SDS011;17689;45.610;5.858;2022-08-18T03:39:47;6.43;;;4.10;;
31018;SDS011;17689;45.610;5.858;2022-08-18T03:42:15;7.73;;;4.13;;
31018;SDS011;17689;45.610;5.858;2022-08-18T03:44:42;4.93;;;3.97;;
31018;SDS011;17689;45.610;5.858;2022-08-18T03:47:08;6.63;;;4.00;;
31018;SDS011;17689;45.610;5.858;2022-08-18T03:49:35;4.57;;;4.00;;
31018;SDS011;17689;45.610;5.858;2022-08-18T03:52:02;5.23;;;3.73;;
31018;SDS011;17689;45.610;5.858;2022-08-18T03:54:29;5.43;;;3.97;;
31018;SDS011;17689;45.610;5.858;2022-08-18T03:56:56;4.33;;;3.87;;
31018;SDS011;17689;45.610;5.858;2022-08-18T03:59:23;5.23;;;3.90;;
31018;SDS011;17689;45.610;5.858;2022-08-18T04:01:51;4.33;;;3.93;;
31018;SDS011;17689;45.610;5.858;2022-08-18T04:04:20;4.77;;;3.93;;
31018;SDS011;17689;45.610;5.858;2022-08-18T04:06:48;5.93;;;4.37;;
31018;SDS011;17689;45.610;5.858;2022-08-18T04:09:15;5.20;;;4.00;;
31018;SDS011;17689;45.610;5.858;2022-08-18T04:11:41;5.10;;;4.23;;
31018;SDS011;17689;45.610;5.858;2022-08-18T04:14:11;6.07;;;4.77;;
31018;SDS011;17689;45.610;5.858;2022-08-18T04:16:38;4.70;;;4.30;;
31018;SDS011;17689;45.610;5.858;2022-08-18T04:19:05;4.67;;;3.97;;
31018;SDS011;17689;45.610;5.858;2022-08-18T04:21:32;6.47;;;3.73;;
31018;SDS011;17689;45.610;5.858;2022-08-18T04:23:59;4.47;;;3.80;;
31018;SDS011;17689;45.610;5.858;2022-08-18T04:26:40;4.43;;;4.00;;
31018;SDS011;17689;45.610;5.858;2022-08-18T04:29:07;6.30;;;4.00;;
31018;SDS011;17689;45.610;5.858;2022-08-18T04:31:33;5.80;;;3.97;;
31018;SDS011;17689;45.610;5.858;2022-08-18T04:34:00;6.30;;;4.10;;
31018;SDS011;17689;45.610;5.858;2022-08-18T04:36:28;6.50;;;4.20;;
31018;SDS011;17689;45.610;5.858;2022-08-18T04:38:55;9.43;;;4.20;;
31018;SDS011;17689;45.610;5.858;2022-08-18T04:41:23;6.00;;;4.27;;
31018;SDS011;17689;45.610;5.858;2022-08-18T04:43:51;5.57;;;4.67;;
31018;SDS011;17689;45.610;5.858;2022-08-18T04:46:17;7.30;;;4.47;;
31018;SDS011;17689;45.610;5.858;2022-08-18T04:48:43;4.93;;;3.90;;
31018;SDS011;17689;45.610;5.858;2022-08-18T04:51:12;4.53;;;4.13;;
31018;SDS011;17689;45.610;5.858;2022-08-18T04:53:39;7.43;;;4.40;;
31018;SDS011;17689;45.610;5.858;2022-08-18T04:58:44;4.93;;;4.00;;
31018;SDS011;17689;45.610;5.858;2022-08-18T05:01:13;5.00;;;4.47;;
31018;SDS011;17689;45.610;5.858;2022-08-18T05:03:41;7.00;;;4.40;;
31018;SDS011;17689;45.610;5.858;2022-08-18T05:06:08;8.30;;;4.70;;
31018;SDS011;17689;45.610;5.858;2022-08-18T05:08:36;5.97;;;4.40;;
31018;SDS011;17689;45.610;5.858;2022-08-18T05:11:02;5.77;;;5.00;;
31018;SDS011;17689;45.610;5.858;2022-08-18T05:13:28;6.73;;;4.53;;
31018;SDS011;17689;45.610;5.858;2022-08-18T05:15:55;9.33;;;5.13;;
31018;SDS011;17689;45.610;5.858;2022-08-18T05:18:22;5.47;;;4.63;;
31018;SDS011;17689;45.610;5.858;2022-08-18T05:20:52;4.90;;;4.23;;
31018;SDS011;17689;45.610;5.858;2022-08-18T05:23:18;6.23;;;5.30;;
31018;SDS011;17689;45.610;5.858;2022-08-18T05:25:45;6.50;;;4.90;;
31018;SDS011;17689;45.610;5.858;2022-08-18T05:28:12;6.63;;;4.97;;
31018;SDS011;17689;45.610;5.858;2022-08-18T05:30:39;5.50;;;4.67;;
31018;SDS011;17689;45.610;5.858;2022-08-18T05:33:05;4.60;;;4.20;;
31018;SDS011;17689;45.610;5.858;2022-08-18T05:35:37;8.13;;;5.17;;
31018;SDS011;17689;45.610;5.858;2022-08-18T05:40:38;4.67;;;4.10;;
31018;SDS011;17689;45.610;5.858;2022-08-18T05:43:05;6.57;;;4.77;;
31018;SDS011;17689;45.610;5.858;2022-08-18T05:45:32;5.00;;;4.50;;
31018;SDS011;17689;45.610;5.858;2022-08-18T05:47:59;7.57;;;4.40;;
31018;SDS011;17689;45.610;5.858;2022-08-18T05:50:26;5.30;;;4.80;;
31018;SDS011;17689;45.610;5.858;2022-08-18T05:55:21;7.00;;;5.30;;
31018;SDS011;17689;45.610;5.858;2022-08-18T05:58:08;5.70;;;5.20;;
31018;SDS011;17689;45.610;5.858;2022-08-18T06:00:35;5.83;;;5.00;;
31018;SDS011;17689;45.610;5.858;2022-08-18T06:05:36;5.27;;;4.60;;
31018;SDS011;17689;45.610;5.858;2022-08-18T06:10:33;6.63;;;5.60;;
31018;SDS011;17689;45.610;5.858;2022-08-18T06:13:00;6.50;;;5.40;;
31018;SDS011;17689;45.610;5.858;2022-08-18T06:18:08;5.43;;;4.90;;
31018;SDS011;17689;45.610;5.858;2022-08-18T06:23:08;5.97;;;4.73;;
31018;SDS011;17689;45.610;5.858;2022-08-18T06:25:48;4.70;;;4.30;;
31018;SDS011;17689;45.610;5.858;2022-08-18T06:28:19;5.20;;;4.23;;
31018;SDS011;17689;45.610;5.858;2022-08-18T06:30:52;6.60;;;4.90;;
31018;SDS011;17689;45.610;5.858;2022-08-18T06:33:27;4.50;;;4.10;;
31018;SDS011;17689;45.610;5.858;2022-08-18T06:36:06;19.00;;;6.03;;
31018;SDS011;17689;45.610;5.858;2022-08-18T06:41:42;16.03;;;5.83;;
31018;SDS011;17689;45.610;5.858;2022-08-18T06:44:18;16.07;;;5.53;;
31018;SDS011;17689;45.610;5.858;2022-08-18T06:46:58;10.87;;;5.17;;
31018;SDS011;17689;45.610;5.858;2022-08-18T06:49:37;9.97;;;5.10;;
31018;SDS011;17689;45.610;5.858;2022-08-18T06:54:49;9.43;;;5.20;;
31018;SDS011;17689;45.610;5.858;2022-08-18T06:57:20;8.17;;;5.43;;
31018;SDS011;17689;45.610;5.858;2022-08-18T06:59:58;7.63;;;4.90;;
31018;SDS011;17689;45.610;5.858;2022-08-18T07:07:43;9.63;;;5.67;;
31018;SDS011;17689;45.610;5.858;2022-08-18T07:12:38;6.60;;;5.17;;
31018;SDS011;17689;45.610;5.858;2022-08-18T07:15:05;5.73;;;5.23;;
31018;SDS011;17689;45.610;5.858;2022-08-18T07:17:33;6.50;;;5.90;;
31018;SDS011;17689;45.610;5.858;2022-08-18T07:22:27;6.63;;;5.17;;
31018;SDS011;17689;45.610;5.858;2022-08-18T07:24:54;8.87;;;5.93;;
31018;SDS011;17689;45.610;5.858;2022-08-18T07:27:42;6.37;;;5.77;;
31018;SDS011;17689;45.610;5.858;2022-08-18T07:35:23;8.57;;;5.40;;
31018;SDS011;17689;45.610;5.858;2022-08-18T07:37:52;6.50;;;5.90;;
31018;SDS011;17689;45.610;5.858;2022-08-18T07:40:23;6.13;;;5.00;;
31018;SDS011;17689;45.610;5.858;2022-08-18T07:42:52;5.77;;;4.90;;
31018;SDS011;17689;45.610;5.858;2022-08-18T07:45:35;4.57;;;4.17;;
31018;SDS011;17689;45.610;5.858;2022-08-18T07:48:14;5.07;;;4.43;;
31018;SDS011;17689;45.610;5.858;2022-08-18T07:50:47;6.03;;;4.93;;
31018;SDS011;17689;45.610;5.858;2022-08-18T07:56:11;5.43;;;4.93;;
31018;SDS011;17689;45.610;5.858;2022-08-18T08:01:17;5.70;;;5.10;;
31018;SDS011;17689;45.610;5.858;2022-08-18T08:08:41;6.90;;;5.60;;
31018;SDS011;17689;45.610;5.858;2022-08-18T08:21:18;5.93;;;4.70;;
31018;SDS011;17689;45.610;5.858;2022-08-18T08:23:47;5.30;;;4.10;;
31018;SDS011;17689;45.610;5.858;2022-08-18T08:33:51;6.13;;;5.53;;
31018;SDS011;17689;45.610;5.858;2022-08-18T08:36:22;7.07;;;5.83;;
31018;SDS011;17689;45.610;5.858;2022-08-18T08:38:53;5.80;;;5.17;;
31018;SDS011;17689;45.610;5.858;2022-08-18T08:42:04;4.90;;;4.40;;
31018;SDS011;17689;45.610;5.858;2022-08-18T08:44:12;4.87;;;4.37;;
31018;SDS011;17689;45.610;5.858;2022-08-18T08:49:10;5.53;;;4.40;;
31018;SDS011;17689;45.610;5.858;2022-08-18T08:51:51;4.87;;;4.40;;
31018;SDS011;17689;45.610;5.858;2022-08-18T08:56:49;4.30;;;3.90;;
31018;SDS011;17689;45.610;5.858;2022-08-18T08:59:17;4.30;;;3.90;;
31018;SDS011;17689;45.610;5.858;2022-08-18T09:01:55;4.40;;;4.00;;
31018;SDS011;17689;45.610;5.858;2022-08-18T09:28:16;5.13;;;3.80;;
31018;SDS011;17689;45.610;5.858;2022-08-18T09:30:45;4.40;;;4.00;;
31018;SDS011;17689;45.610;5.858;2022-08-18T09:35:42;4.30;;;3.80;;
31018;SDS011;17689;45.610;5.858;2022-08-18T09:38:15;4.20;;;3.80;;
31018;SDS011;17689;45.610;5.858;2022-08-18T09:41:13;4.30;;;3.90;;
31018;SDS011;17689;45.610;5.858;2022-08-18T09:44:00;4.00;;;3.67;;
31018;SDS011;17689;45.610;5.858;2022-08-18T09:51:54;6.47;;;3.90;;
31018;SDS011;17689;45.610;5.858;2022-08-18T09:54:21;4.07;;;3.70;;
31018;SDS011;17689;45.610;5.858;2022-08-18T09:59:57;4.07;;;3.23;;
31018;SDS011;17689;45.610;5.858;2022-08-18T10:02:08;4.10;;;3.70;;
31018;SDS011;17689;45.610;5.858;2022-08-18T10:04:39;3.80;;;3.50;;
31018;SDS011;17689;45.610;5.858;2022-08-18T10:07:29;3.83;;;3.53;;
31018;SDS011;17689;45.610;5.858;2022-08-18T10:17:53;4.10;;;3.70;;
31018;SDS011;17689;45.610;5.858;2022-08-18T10:22:51;5.10;;;3.60;;
31018;SDS011;17689;45.610;5.858;2022-08-18T10:27:56;4.40;;;3.70;;
31018;SDS011;17689;45.610;5.858;2022-08-18T10:32:55;4.40;;;4.00;;
31018;SDS011;17689;45.610;5.858;2022-08-18T10:40:35;5.03;;;4.00;;
31018;SDS011;17689;45.610;5.858;2022-08-18T10:45:47;4.00;;;3.70;;
31018;SDS011;17689;45.610;5.858;2022-08-18T10:48:21;4.37;;;3.97;;
31018;SDS011;17689;45.610;5.858;2022-08-18T10:50:49;4.43;;;4.03;;
31018;SDS011;17689;45.610;5.858;2022-08-18T10:55:45;4.30;;;3.50;;
31018;SDS011;17689;45.610;5.858;2022-08-18T11:03:37;3.90;;;3.60;;
31018;SDS011;17689;45.610;5.858;2022-08-18T11:06:07;4.17;;;3.50;;
31018;SDS011;17689;45.610;5.858;2022-08-18T11:08:43;4.10;;;3.50;;
31018;SDS011;17689;45.610;5.858;2022-08-18T11:11:10;3.90;;;3.60;;
31018;SDS011;17689;45.610;5.858;2022-08-18T11:18:45;5.17;;;3.53;;
31018;SDS011;17689;45.610;5.858;2022-08-18T11:24:05;5.53;;;3.80;;
31018;SDS011;17689;45.610;5.858;2022-08-18T11:26:36;6.03;;;3.53;;
31018;SDS011;17689;45.610;5.858;2022-08-18T11:29:16;4.00;;;3.67;;
31018;SDS011;17689;45.610;5.858;2022-08-18T11:31:42;3.93;;;3.57;;
31018;SDS011;17689;45.610;5.858;2022-08-18T11:34:12;4.37;;;3.90;;
31018;SDS011;17689;45.610;5.858;2022-08-18T11:36:40;4.20;;;3.50;;
31018;SDS011;17689;45.610;5.858;2022-08-18T11:39:09;5.27;;;3.70;;
31018;SDS011;17689;45.610;5.858;2022-08-18T11:41:36;4.10;;;3.73;;
31018;SDS011;17689;45.610;5.858;2022-08-18T11:44:04;3.97;;;3.60;;
31018;SDS011;17689;45.610;5.858;2022-08-18T11:46:36;4.30;;;3.87;;
31018;SDS011;17689;45.610;5.858;2022-08-18T11:49:14;4.00;;;3.70;;
31018;SDS011;17689;45.610;5.858;2022-08-18T11:51:52;3.87;;;3.57;;
31018;SDS011;17689;45.610;5.858;2022-08-18T11:54:19;3.93;;;3.53;;
31018;SDS011;17689;45.610;5.858;2022-08-18T11:56:46;3.60;;;3.30;;
31018;SDS011;17689;45.610;5.858;2022-08-18T12:01:53;4.10;;;3.70;;
31018;SDS011;17689;45.610;5.858;2022-08-18T12:12:18;4.33;;;3.53;;
31018;SDS011;17689;45.610;5.858;2022-08-18T12:14:52;5.37;;;4.30;;
31018;SDS011;17689;45.610;5.858;2022-08-18T12:17:19;10.07;;;4.10;;
31018;SDS011;17689;45.610;5.858;2022-08-18T12:19:46;4.23;;;3.80;;
31018;SDS011;17689;45.610;5.858;2022-08-18T12:22:16;3.97;;;3.57;;
31018;SDS011;17689;45.610;5.858;2022-08-18T12:24:43;4.30;;;3.77;;
31018;SDS011;17689;45.610;5.858;2022-08-18T12:27:13;7.47;;;3.70;;
31018;SDS011;17689;45.610;5.858;2022-08-18T12:29:40;4.23;;;3.83;;
31018;SDS011;17689;45.610;5.858;2022-08-18T12:32:07;4.07;;;3.77;;
31018;SDS011;17689;45.610;5.858;2022-08-18T12:34:33;5.13;;;3.73;;
31018;SDS011;17689;45.610;5.858;2022-08-18T12:37:00;6.27;;;3.60;;
31018;SDS011;17689;45.610;5.858;2022-08-18T12:39:26;3.87;;;3.50;;
31018;SDS011;17689;45.610;5.858;2022-08-18T12:41:53;4.03;;;3.70;;
31018;SDS011;17689;45.610;5.858;2022-08-18T12:44:19;4.70;;;4.00;;
31018;SDS011;17689;45.610;5.858;2022-08-18T12:46:46;3.93;;;3.60;;
31018;SDS011;17689;45.610;5.858;2022-08-18T12:49:18;3.93;;;3.60;;
31018;SDS011;17689;45.610;5.858;2022-08-18T12:51:44;4.13;;;3.73;;
31018;SDS011;17689;45.610;5.858;2022-08-18T12:54:11;4.93;;;3.87;;
31018;SDS011;17689;45.610;5.858;2022-08-18T12:56:38;11.30;;;4.00;;
31018;SDS011;17689;45.610;5.858;2022-08-18T12:59:05;6.90;;;3.93;;
31018;SDS011;17689;45.610;5.858;2022-08-18T13:01:33;6.47;;;3.93;;
31018;SDS011;17689;45.610;5.858;2022-08-18T13:04:00;4.10;;;3.70;;
31018;SDS011;17689;45.610;5.858;2022-08-18T13:06:27;8.60;;;4.03;;
31018;SDS011;17689;45.610;5.858;2022-08-18T13:08:55;4.30;;;3.90;;
31018;SDS011;17689;45.610;5.858;2022-08-18T13:11:21;4.70;;;3.80;;
31018;SDS011;17689;45.610;5.858;2022-08-18T13:13:48;6.07;;;3.73;;
31018;SDS011;17689;45.610;5.858;2022-08-18T13:16:14;7.67;;;3.97;;
31018;SDS011;17689;45.610;5.858;2022-08-18T13:18:41;7.50;;;4.20;;
31018;SDS011;17689;45.610;5.858;2022-08-18T13:21:09;4.40;;;4.00;;
31018;SDS011;17689;45.610;5.858;2022-08-18T13:23:36;10.03;;;4.00;;
31018;SDS011;17689;45.610;5.858;2022-08-18T13:26:03;5.07;;;3.87;;
31018;SDS011;17689;45.610;5.858;2022-08-18T13:28:31;5.47;;;3.70;;
31018;SDS011;17689;45.610;5.858;2022-08-18T13:30:57;4.50;;;4.10;;
31018;SDS011;17689;45.610;5.858;2022-08-18T13:33:24;6.30;;;3.80;;
31018;SDS011;17689;45.610;5.858;2022-08-18T13:35:51;9.43;;;4.00;;
31018;SDS011;17689;45.610;5.858;2022-08-18T13:38:17;6.47;;;3.63;;
31018;SDS011;17689;45.610;5.858;2022-08-18T13:40:46;3.97;;;3.53;;
31018;SDS011;17689;45.610;5.858;2022-08-18T13:43:13;4.07;;;3.67;;
31018;SDS011;17689;45.610;5.858;2022-08-18T13:45:40;3.70;;;3.40;;
31018;SDS011;17689;45.610;5.858;2022-08-18T13:48:08;5.50;;;4.10;;
31018;SDS011;17689;45.610;5.858;2022-08-18T13:50:35;4.40;;;3.90;;
31018;SDS011;17689;45.610;5.858;2022-08-18T13:53:04;4.20;;;3.63;;
31018;SDS011;17689;45.610;5.858;2022-08-18T13:55:32;5.07;;;3.80;;
31018;SDS011;17689;45.610;5.858;2022-08-18T13:57:58;5.03;;;3.47;;
31018;SDS011;17689;45.610;5.858;2022-08-18T14:00:24;6.43;;;3.90;;
31018;SDS011;17689;45.610;5.858;2022-08-18T14:02:51;4.50;;;4.10;;
31018;SDS011;17689;45.610;5.858;2022-08-18T14:05:19;4.27;;;3.87;;
31018;SDS011;17689;45.610;5.858;2022-08-18T14:07:46;4.47;;;4.07;;
31018;SDS011;17689;45.610;5.858;2022-08-18T14:10:12;5.13;;;4.17;;
31018;SDS011;17689;45.610;5.858;2022-08-18T14:12:40;6.23;;;4.20;;
31018;SDS011;17689;45.610;5.858;2022-08-18T14:15:07;6.57;;;3.60;;
31018;SDS011;17689;45.610;5.858;2022-08-18T14:17:34;4.23;;;3.83;;
31018;SDS011;17689;45.610;5.858;2022-08-18T14:20:01;4.50;;;4.07;;
31018;SDS011;17689;45.610;5.858;2022-08-18T14:22:45;3.63;;;3.33;;
31018;SDS011;17689;45.610;5.858;2022-08-18T14:25:30;5.33;;;3.93;;
31018;SDS011;17689;45.610;5.858;2022-08-18T14:28:15;6.37;;;3.97;;
31018;SDS011;17689;45.610;5.858;2022-08-18T14:30:44;4.43;;;4.03;;
31018;SDS011;17689;45.610;5.858;2022-08-18T14:33:11;4.93;;;4.10;;
31018;SDS011;17689;45.610;5.858;2022-08-18T14:35:40;6.57;;;4.00;;
31018;SDS011;17689;45.610;5.858;2022-08-18T14:38:06;5.90;;;4.10;;
31018;SDS011;17689;45.610;5.858;2022-08-18T14:40:33;4.10;;;3.70;;
31018;SDS011;17689;45.610;5.858;2022-08-18T14:42:59;4.33;;;3.93;;
31018;SDS011;17689;45.610;5.858;2022-08-18T14:45:26;5.53;;;3.70;;
31018;SDS011;17689;45.610;5.858;2022-08-18T14:47:53;4.10;;;3.80;;
31018;SDS011;17689;45.610;5.858;2022-08-18T14:50:20;5.33;;;4.20;;
31018;SDS011;17689;45.610;5.858;2022-08-18T14:52:47;4.50;;;4.10;;
31018;SDS011;17689;45.610;5.858;2022-08-18T14:55:14;5.73;;;3.97;;
31018;SDS011;17689;45.610;5.858;2022-08-18T14:57:41;4.43;;;4.03;;
31018;SDS011;17689;45.610;5.858;2022-08-18T15:00:09;4.40;;;4.00;;
31018;SDS011;17689;45.610;5.858;2022-08-18T15:02:37;4.63;;;4.23;;
31018;SDS011;17689;45.610;5.858;2022-08-18T15:05:05;4.87;;;3.87;;
31018;SDS011;17689;45.610;5.858;2022-08-18T15:07:33;4.97;;;4.00;;
31018;SDS011;17689;45.610;5.858;2022-08-18T15:10:02;4.47;;;4.07;;
31018;SDS011;17689;45.610;5.858;2022-08-18T15:12:29;4.43;;;4.00;;
31018;SDS011;17689;45.610;5.858;2022-08-18T15:14:55;4.30;;;4.00;;
31018;SDS011;17689;45.610;5.858;2022-08-18T15:17:24;4.57;;;4.13;;
31018;SDS011;17689;45.610;5.858;2022-08-18T15:19:51;4.20;;;3.80;;
31018;SDS011;17689;45.610;5.858;2022-08-18T15:22:18;8.43;;;4.60;;
31018;SDS011;17689;45.610;5.858;2022-08-18T15:25:03;10.10;;;4.70;;
31018;SDS011;17689;45.610;5.858;2022-08-18T15:27:49;4.83;;;4.00;;
31018;SDS011;17689;45.610;5.858;2022-08-18T15:30:15;5.03;;;4.10;;
31018;SDS011;17689;45.610;5.858;2022-08-18T15:32:42;5.57;;;4.30;;
31018;SDS011;17689;45.610;5.858;2022-08-18T15:35:09;5.87;;;4.43;;
31018;SDS011;17689;45.610;5.858;2022-08-18T15:37:36;5.93;;;4.47;;
31018;SDS011;17689;45.610;5.858;2022-08-18T15:40:24;4.67;;;4.17;;
31018;SDS011;17689;45.610;5.858;2022-08-18T15:42:51;3.93;;;3.63;;
31018;SDS011;17689;45.610;5.858;2022-08-18T15:45:24;5.60;;;4.07;;
31018;SDS011;17689;45.610;5.858;2022-08-18T15:47:51;4.83;;;4.30;;
31018;SDS011;17689;45.610;5.858;2022-08-18T15:50:17;6.50;;;4.20;;
31018;SDS011;17689;45.610;5.858;2022-08-18T15:52:54;6.07;;;3.97;;
31018;SDS011;17689;45.610;5.858;2022-08-18T15:55:22;4.37;;;4.03;;
31018;SDS011;17689;45.610;5.858;2022-08-18T15:57:48;4.20;;;3.80;;
31018;SDS011;17689;45.610;5.858;2022-08-18T16:00:15;4.50;;;4.10;;
31018;SDS011;17689;45.610;5.858;2022-08-18T16:02:52;3.97;;;3.67;;
31018;SDS011;17689;45.610;5.858;2022-08-18T16:05:21;5.67;;;3.80;;
31018;SDS011;17689;45.610;5.858;2022-08-18T16:07:49;4.87;;;4.30;;
31018;SDS011;17689;45.610;5.858;2022-08-18T16:10:16;5.00;;;4.47;;
31018;SDS011;17689;45.610;5.858;2022-08-18T16:12:43;4.80;;;4.40;;
31018;SDS011;17689;45.610;5.858;2022-08-18T16:15:09;4.37;;;3.90;;
31018;SDS011;17689;45.610;5.858;2022-08-18T16:17:36;4.53;;;3.80;;
31018;SDS011;17689;45.610;5.858;2022-08-18T16:20:03;5.30;;;4.40;;
31018;SDS011;17689;45.610;5.858;2022-08-18T16:22:29;5.17;;;4.30;;
31018;SDS011;17689;45.610;5.858;2022-08-18T16:24:57;4.70;;;4.30;;
31018;SDS011;17689;45.610;5.858;2022-08-18T16:27:28;4.37;;;3.97;;
31018;SDS011;17689;45.610;5.858;2022-08-18T16:29:55;7.23;;;4.10;;
31018;SDS011;17689;45.610;5.858;2022-08-18T16:32:21;4.70;;;4.30;;
31018;SDS011;17689;45.610;5.858;2022-08-18T16:34:48;5.17;;;4.20;;
31018;SDS011;17689;45.610;5.858;2022-08-18T16:37:17;5.07;;;4.10;;
31018;SDS011;17689;45.610;5.858;2022-08-18T16:39:44;4.23;;;3.93;;
31018;SDS011;17689;45.610;5.858;2022-08-18T16:42:10;4.40;;;3.80;;
31018;SDS011;17689;45.610;5.858;2022-08-18T16:44:36;4.83;;;3.97;;
31018;SDS011;17689;45.610;5.858;2022-08-18T16:47:03;5.10;;;4.00;;
31018;SDS011;17689;45.610;5.858;2022-08-18T16:49:29;5.00;;;3.93;;
31018;SDS011;17689;45.610;5.858;2022-08-18T16:51:57;4.60;;;4.20;;
31018;SDS011;17689;45.610;5.858;2022-08-18T16:54:26;4.80;;;4.40;;
31018;SDS011;17689;45.610;5.858;2022-08-18T16:56:52;9.57;;;4.43;;
31018;SDS011;17689;45.610;5.858;2022-08-18T16:59:18;4.20;;;3.90;;
31018;SDS011;17689;45.610;5.858;2022-08-18T17:02:03;4.57;;;4.17;;
31018;SDS011;17689;45.610;5.858;2022-08-18T17:04:48;4.97;;;4.03;;
31018;SDS011;17689;45.610;5.858;2022-08-18T17:07:18;5.13;;;4.07;;
31018;SDS011;17689;45.610;5.858;2022-08-18T17:09:44;3.83;;;3.53;;
31018;SDS011;17689;45.610;5.858;2022-08-18T17:12:10;4.40;;;4.00;;
31018;SDS011;17689;45.610;5.858;2022-08-18T17:14:36;4.90;;;3.83;;
31018;SDS011;17689;45.610;5.858;2022-08-18T17:17:03;4.60;;;4.20;;
31018;SDS011;17689;45.610;5.858;2022-08-18T17:19:30;4.63;;;4.23;;
31018;SDS011;17689;45.610;5.858;2022-08-18T17:21:58;4.30;;;4.00;;
31018;SDS011;17689;45.610;5.858;2022-08-18T17:24:24;4.57;;;3.90;;
31018;SDS011;17689;45.610;5.858;2022-08-18T17:27:33;4.87;;;4.33;;
31018;SDS011;17689;45.610;5.858;2022-08-18T17:37:50;6.17;;;4.10;;
31018;SDS011;17689;45.610;5.858;2022-08-18T17:40:23;4.27;;;3.77;;
31018;SDS011;17689;45.610;5.858;2022-08-18T17:42:51;4.27;;;3.93;;
31018;SDS011;17689;45.610;5.858;2022-08-18T17:45:17;4.87;;;4.23;;
31018;SDS011;17689;45.610;5.858;2022-08-18T17:50:41;5.27;;;4.40;;